sensor_id;sensor_type;location;lat;lon;timestamp;P1;durP1;ratioP1;P2;durP2;ratioP2
72369;SDS011;60343;-32.030;115.880;2023-05-07T00:01:40;2.60;;;0.20;;
72369;SDS011;60343;-32.030;115.880;2023-05-07T00:04:20;1.67;;;0.20;;
72369;SDS011;60343;-32.030;115.880;2023-05-07T00:06:54;0.30;;;0.10;;
72369;SDS011;60343;-32.030;115.880;2023-05-07T00:09:29;2.30;;;0.20;;
72369;SDS011;60343;-32.030;115.880;2023-05-07T00:12:04;2.45;;;0.30;;
72369;SDS011;60343;-32.030;115.880;2023-05-07T00:14:38;6.18;;;0.43;;
72369;SDS011;60343;-32.030;115.880;2023-05-07T00:17:13;1.10;;;0.15;;
72369;SDS011;60343;-32.030;115.880;2023-05-07T00:19:53;2.00;;;0.20;;
72369;SDS011;60343;-32.030;115.880;2023-05-07T00:22:29;1.45;;;0.20;;
72369;SDS011;60343;-32.030;115.880;2023-05-07T00:25:04;2.88;;;0.20;;
72369;SDS011;60343;-32.030;115.880;2023-05-07T00:27:39;2.47;;;0.22;;
72369;SDS011;60343;-32.030;115.880;2023-05-07T00:30:14;2.55;;;0.30;;
72369;SDS011;60343;-32.030;115.880;2023-05-07T00:32:48;0.63;;;0.10;;
72369;SDS011;60343;-32.030;115.880;2023-05-07T00:35:28;3.38;;;0.25;;
72369;SDS011;60343;-32.030;115.880;2023-05-07T00:38:03;3.67;;;0.22;;
72369;SDS011;60343;-32.030;115.880;2023-05-07T00:40:37;2.83;;;0.20;;
72369;SDS011;60343;-32.030;115.880;2023-05-07T00:43:12;3.45;;;0.30;;
72369;SDS011;60343;-32.030;115.880;2023-05-07T00:45:47;3.80;;;0.20;;
72369;SDS011;60343;-32.030;115.880;2023-05-07T00:48:21;0.10;;;0.10;;
72369;SDS011;60343;-32.030;115.880;2023-05-07T00:51:02;2.80;;;0.25;;
72369;SDS011;60343;-32.030;115.880;2023-05-07T00:53:37;1.40;;;0.30;;
72369;SDS011;60343;-32.030;115.880;2023-05-07T00:56:12;1.92;;;0.10;;
72369;SDS011;60343;-32.030;115.880;2023-05-07T00:58:46;2.60;;;0.28;;
72369;SDS011;60343;-32.030;115.880;2023-05-07T01:01:21;2.92;;;0.13;;
72369;SDS011;60343;-32.030;115.880;2023-05-07T01:03:56;1.08;;;0.10;;
72369;SDS011;60343;-32.030;115.880;2023-05-07T01:06:36;6.57;;;0.40;;
72369;SDS011;60343;-32.030;115.880;2023-05-07T01:09:10;2.35;;;0.13;;
72369;SDS011;60343;-32.030;115.880;2023-05-07T01:11:46;3.83;;;0.40;;
72369;SDS011;60343;-32.030;115.880;2023-05-07T01:14:23;2.10;;;0.30;;
72369;SDS011;60343;-32.030;115.880;2023-05-07T01:16:59;0.77;;;0.10;;
72369;SDS011;60343;-32.030;115.880;2023-05-07T01:19:34;0.90;;;0.10;;
72369;SDS011;60343;-32.030;115.880;2023-05-07T01:22:14;0.82;;;0.13;;
72369;SDS011;60343;-32.030;115.880;2023-05-07T01:24:56;0.57;;;0.10;;
72369;SDS011;60343;-32.030;115.880;2023-05-07T01:27:31;1.35;;;0.20;;
72369;SDS011;60343;-32.030;115.880;2023-05-07T01:30:06;2.33;;;0.00;;
72369;SDS011;60343;-32.030;115.880;2023-05-07T01:32:42;0.82;;;0.30;;
72369;SDS011;60343;-32.030;115.880;2023-05-07T01:35:21;1.20;;;0.25;;
72369;SDS011;60343;-32.030;115.880;2023-05-07T01:37:59;1.83;;;0.28;;
72369;SDS011;60343;-32.030;115.880;2023-05-07T01:40:40;2.88;;;0.25;;
72369;SDS011;60343;-32.030;115.880;2023-05-07T01:43:15;1.13;;;0.20;;
72369;SDS011;60343;-32.030;115.880;2023-05-07T01:45:50;0.77;;;0.15;;
72369;SDS011;60343;-32.030;115.880;2023-05-07T01:48:25;0.90;;;0.17;;
72369;SDS011;60343;-32.030;115.880;2023-05-07T01:51:00;0.85;;;0.20;;
72369;SDS011;60343;-32.030;115.880;2023-05-07T01:53:38;1.20;;;0.25;;
72369;SDS011;60343;-32.030;115.880;2023-05-07T01:56:22;1.15;;;0.20;;
72369;SDS011;60343;-32.030;115.880;2023-05-07T01:58:58;1.55;;;0.10;;
72369;SDS011;60343;-32.030;115.880;2023-05-07T02:01:32;0.75;;;0.05;;
72369;SDS011;60343;-32.030;115.880;2023-05-07T02:04:07;1.25;;;0.13;;
72369;SDS011;60343;-32.030;115.880;2023-05-07T02:06:41;1.65;;;0.13;;
72369;SDS011;60343;-32.030;115.880;2023-05-07T02:09:16;1.38;;;0.30;;
72369;SDS011;60343;-32.030;115.880;2023-05-07T02:11:56;1.27;;;0.10;;
72369;SDS011;60343;-32.030;115.880;2023-05-07T02:14:31;1.23;;;0.10;;
72369;SDS011;60343;-32.030;115.880;2023-05-07T02:17:05;0.95;;;0.20;;
72369;SDS011;60343;-32.030;115.880;2023-05-07T02:19:40;2.22;;;0.20;;
72369;SDS011;60343;-32.030;115.880;2023-05-07T02:22:14;2.70;;;0.57;;
72369;SDS011;60343;-32.030;115.880;2023-05-07T02:24:49;0.80;;;0.13;;
72369;SDS011;60343;-32.030;115.880;2023-05-07T02:27:29;0.77;;;0.30;;
72369;SDS011;60343;-32.030;115.880;2023-05-07T02:30:04;1.25;;;0.17;;
72369;SDS011;60343;-32.030;115.880;2023-05-07T02:32:39;3.05;;;0.25;;
72369;SDS011;60343;-32.030;115.880;2023-05-07T02:35:14;2.25;;;0.20;;
72369;SDS011;60343;-32.030;115.880;2023-05-07T02:37:48;2.72;;;0.22;;
72369;SDS011;60343;-32.030;115.880;2023-05-07T02:40:23;1.50;;;0.20;;
72369;SDS011;60343;-32.030;115.880;2023-05-07T02:43:05;1.33;;;0.20;;
72369;SDS011;60343;-32.030;115.880;2023-05-07T02:45:39;3.13;;;0.35;;
72369;SDS011;60343;-32.030;115.880;2023-05-07T02:48:14;2.17;;;0.20;;
72369;SDS011;60343;-32.030;115.880;2023-05-07T02:50:48;1.17;;;0.20;;
72369;SDS011;60343;-32.030;115.880;2023-05-07T02:53:23;2.15;;;0.30;;
72369;SDS011;60343;-32.030;115.880;2023-05-07T02:55:57;1.13;;;0.20;;
72369;SDS011;60343;-32.030;115.880;2023-05-07T02:58:38;3.20;;;0.25;;
72369;SDS011;60343;-32.030;115.880;2023-05-07T03:01:13;1.45;;;0.30;;
72369;SDS011;60343;-32.030;115.880;2023-05-07T03:03:47;1.17;;;0.30;;
72369;SDS011;60343;-32.030;115.880;2023-05-07T03:06:22;2.08;;;0.30;;
72369;SDS011;60343;-32.030;115.880;2023-05-07T03:08:56;0.55;;;0.10;;
72369;SDS011;60343;-32.030;115.880;2023-05-07T03:11:31;2.67;;;0.20;;
72369;SDS011;60343;-32.030;115.880;2023-05-07T03:14:11;1.98;;;0.20;;
72369;SDS011;60343;-32.030;115.880;2023-05-07T03:16:46;1.77;;;0.13;;
72369;SDS011;60343;-32.030;115.880;2023-05-07T03:19:21;0.63;;;0.10;;
72369;SDS011;60343;-32.030;115.880;2023-05-07T03:21:56;2.15;;;0.20;;
72369;SDS011;60343;-32.030;115.880;2023-05-07T03:24:31;2.83;;;0.40;;
72369;SDS011;60343;-32.030;115.880;2023-05-07T03:27:05;1.52;;;0.30;;
72369;SDS011;60343;-32.030;115.880;2023-05-07T03:29:45;2.38;;;0.22;;
72369;SDS011;60343;-32.030;115.880;2023-05-07T03:32:20;2.25;;;0.22;;
72369;SDS011;60343;-32.030;115.880;2023-05-07T03:34:54;2.08;;;0.40;;
72369;SDS011;60343;-32.030;115.880;2023-05-07T03:37:29;1.70;;;0.20;;
72369;SDS011;60343;-32.030;115.880;2023-05-07T03:40:03;1.20;;;0.20;;
72369;SDS011;60343;-32.030;115.880;2023-05-07T03:42:39;2.20;;;0.35;;
72369;SDS011;60343;-32.030;115.880;2023-05-07T03:45:19;2.70;;;0.40;;
72369;SDS011;60343;-32.030;115.880;2023-05-07T03:47:53;2.00;;;0.20;;
72369;SDS011;60343;-32.030;115.880;2023-05-07T03:50:28;0.70;;;0.30;;
72369;SDS011;60343;-32.030;115.880;2023-05-07T03:53:03;1.52;;;0.10;;
72369;SDS011;60343;-32.030;115.880;2023-05-07T03:55:37;3.08;;;0.40;;
72369;SDS011;60343;-32.030;115.880;2023-05-07T03:58:12;1.65;;;0.30;;
72369;SDS011;60343;-32.030;115.880;2023-05-07T04:00:52;3.60;;;0.28;;
72369;SDS011;60343;-32.030;115.880;2023-05-07T04:03:26;1.17;;;0.40;;
72369;SDS011;60343;-32.030;115.880;2023-05-07T04:06:01;1.48;;;0.30;;
72369;SDS011;60343;-32.030;115.880;2023-05-07T04:08:36;1.17;;;0.38;;
72369;SDS011;60343;-32.030;115.880;2023-05-07T04:11:10;1.95;;;0.40;;
72369;SDS011;60343;-32.030;115.880;2023-05-07T04:13:44;1.05;;;0.13;;
72369;SDS011;60343;-32.030;115.880;2023-05-07T04:16:24;0.35;;;0.10;;
72369;SDS011;60343;-32.030;115.880;2023-05-07T04:18:59;2.83;;;0.32;;
72369;SDS011;60343;-32.030;115.880;2023-05-07T04:21:33;1.88;;;0.30;;
72369;SDS011;60343;-32.030;115.880;2023-05-07T04:24:08;1.65;;;0.28;;
72369;SDS011;60343;-32.030;115.880;2023-05-07T04:26:42;1.75;;;0.20;;
72369;SDS011;60343;-32.030;115.880;2023-05-07T04:29:17;1.65;;;0.10;;
72369;SDS011;60343;-32.030;115.880;2023-05-07T04:31:57;0.60;;;0.20;;
72369;SDS011;60343;-32.030;115.880;2023-05-07T04:34:32;1.05;;;0.20;;
72369;SDS011;60343;-32.030;115.880;2023-05-07T04:37:06;3.10;;;0.22;;
72369;SDS011;60343;-32.030;115.880;2023-05-07T04:39:41;0.40;;;0.10;;
72369;SDS011;60343;-32.030;115.880;2023-05-07T04:42:15;2.63;;;0.30;;
72369;SDS011;60343;-32.030;115.880;2023-05-07T04:44:52;1.17;;;0.20;;
72369;SDS011;60343;-32.030;115.880;2023-05-07T04:47:32;1.70;;;0.20;;
72369;SDS011;60343;-32.030;115.880;2023-05-07T04:50:07;0.40;;;0.10;;
72369;SDS011;60343;-32.030;115.880;2023-05-07T04:52:42;1.02;;;0.20;;
72369;SDS011;60343;-32.030;115.880;2023-05-07T04:55:17;0.88;;;0.20;;
72369;SDS011;60343;-32.030;115.880;2023-05-07T04:57:52;2.00;;;0.30;;
72369;SDS011;60343;-32.030;115.880;2023-05-07T05:00:28;0.52;;;0.05;;
72369;SDS011;60343;-32.030;115.880;2023-05-07T05:03:08;1.17;;;0.30;;
72369;SDS011;60343;-32.030;115.880;2023-05-07T05:05:43;2.85;;;0.20;;
72369;SDS011;60343;-32.030;115.880;2023-05-07T05:08:18;2.13;;;0.28;;
72369;SDS011;60343;-32.030;115.880;2023-05-07T05:10:52;1.77;;;0.22;;
72369;SDS011;60343;-32.030;115.880;2023-05-07T05:13:27;2.17;;;0.20;;
72369;SDS011;60343;-32.030;115.880;2023-05-07T05:16:01;1.27;;;0.20;;
72369;SDS011;60343;-32.030;115.880;2023-05-07T05:18:42;1.92;;;0.30;;
72369;SDS011;60343;-32.030;115.880;2023-05-07T05:21:17;2.30;;;0.40;;
72369;SDS011;60343;-32.030;115.880;2023-05-07T05:23:52;0.93;;;0.20;;
72369;SDS011;60343;-32.030;115.880;2023-05-07T05:26:27;3.03;;;0.35;;
72369;SDS011;60343;-32.030;115.880;2023-05-07T05:29:01;1.52;;;0.20;;
72369;SDS011;60343;-32.030;115.880;2023-05-07T05:31:37;3.80;;;0.30;;
72369;SDS011;60343;-32.030;115.880;2023-05-07T05:34:17;1.38;;;0.35;;
72369;SDS011;60343;-32.030;115.880;2023-05-07T05:36:52;2.47;;;0.40;;
72369;SDS011;60343;-32.030;115.880;2023-05-07T05:39:26;0.98;;;0.20;;
72369;SDS011;60343;-32.030;115.880;2023-05-07T05:42:01;3.45;;;0.30;;
72369;SDS011;60343;-32.030;115.880;2023-05-07T05:44:35;1.25;;;0.22;;
72369;SDS011;60343;-32.030;115.880;2023-05-07T05:47:10;2.55;;;0.45;;
72369;SDS011;60343;-32.030;115.880;2023-05-07T05:49:50;0.95;;;0.20;;
72369;SDS011;60343;-32.030;115.880;2023-05-07T05:52:25;0.68;;;0.15;;
72369;SDS011;60343;-32.030;115.880;2023-05-07T05:54:59;0.32;;;0.10;;
72369;SDS011;60343;-32.030;115.880;2023-05-07T05:57:34;1.95;;;0.30;;
72369;SDS011;60343;-32.030;115.880;2023-05-07T06:00:09;3.65;;;0.30;;
72369;SDS011;60343;-32.030;115.880;2023-05-07T06:02:44;0.73;;;0.20;;
72369;SDS011;60343;-32.030;115.880;2023-05-07T06:05:24;4.13;;;0.40;;
72369;SDS011;60343;-32.030;115.880;2023-05-07T06:07:58;4.05;;;0.50;;
72369;SDS011;60343;-32.030;115.880;2023-05-07T06:10:33;2.30;;;0.20;;
72369;SDS011;60343;-32.030;115.880;2023-05-07T06:13:09;0.77;;;0.20;;
72369;SDS011;60343;-32.030;115.880;2023-05-07T06:15:43;1.80;;;0.20;;
72369;SDS011;60343;-32.030;115.880;2023-05-07T06:18:19;2.35;;;0.30;;
72369;SDS011;60343;-32.030;115.880;2023-05-07T06:20:59;2.42;;;0.25;;
72369;SDS011;60343;-32.030;115.880;2023-05-07T06:23:33;0.43;;;0.20;;
72369;SDS011;60343;-32.030;115.880;2023-05-07T06:26:08;2.80;;;0.35;;
72369;SDS011;60343;-32.030;115.880;2023-05-07T06:28:42;4.47;;;0.50;;
72369;SDS011;60343;-32.030;115.880;2023-05-07T06:31:18;1.45;;;0.30;;
72369;SDS011;60343;-32.030;115.880;2023-05-07T06:33:53;1.83;;;0.30;;
72369;SDS011;60343;-32.030;115.880;2023-05-07T06:36:33;1.30;;;0.20;;
72369;SDS011;60343;-32.030;115.880;2023-05-07T06:39:08;1.17;;;0.30;;
72369;SDS011;60343;-32.030;115.880;2023-05-07T06:41:42;2.72;;;0.40;;
72369;SDS011;60343;-32.030;115.880;2023-05-07T06:44:17;6.20;;;0.98;;
72369;SDS011;60343;-32.030;115.880;2023-05-07T06:46:51;3.65;;;0.52;;
72369;SDS011;60343;-32.030;115.880;2023-05-07T06:49:26;1.13;;;0.38;;
72369;SDS011;60343;-32.030;115.880;2023-05-07T06:52:06;2.30;;;0.30;;
72369;SDS011;60343;-32.030;115.880;2023-05-07T06:54:40;0.85;;;0.10;;
72369;SDS011;60343;-32.030;115.880;2023-05-07T06:57:15;0.82;;;0.20;;
72369;SDS011;60343;-32.030;115.880;2023-05-07T06:59:49;2.60;;;0.30;;
72369;SDS011;60343;-32.030;115.880;2023-05-07T07:02:24;3.13;;;0.20;;
72369;SDS011;60343;-32.030;115.880;2023-05-07T07:04:58;1.42;;;0.30;;
72369;SDS011;60343;-32.030;115.880;2023-05-07T07:07:38;0.63;;;0.20;;
72369;SDS011;60343;-32.030;115.880;2023-05-07T07:10:18;2.47;;;0.30;;
72369;SDS011;60343;-32.030;115.880;2023-05-07T07:12:53;1.35;;;0.20;;
72369;SDS011;60343;-32.030;115.880;2023-05-07T07:15:27;1.58;;;0.28;;
72369;SDS011;60343;-32.030;115.880;2023-05-07T07:18:02;2.08;;;0.30;;
72369;SDS011;60343;-32.030;115.880;2023-05-07T07:20:37;1.65;;;0.20;;
72369;SDS011;60343;-32.030;115.880;2023-05-07T07:23:16;1.10;;;0.30;;
72369;SDS011;60343;-32.030;115.880;2023-05-07T07:25:51;1.08;;;0.20;;
72369;SDS011;60343;-32.030;115.880;2023-05-07T07:28:26;2.80;;;0.28;;
72369;SDS011;60343;-32.030;115.880;2023-05-07T07:31:00;1.40;;;0.30;;
72369;SDS011;60343;-32.030;115.880;2023-05-07T07:33:35;1.33;;;0.30;;
72369;SDS011;60343;-32.030;115.880;2023-05-07T07:36:09;2.25;;;0.30;;
72369;SDS011;60343;-32.030;115.880;2023-05-07T07:38:50;0.55;;;0.20;;
72369;SDS011;60343;-32.030;115.880;2023-05-07T07:41:25;2.05;;;0.28;;
72369;SDS011;60343;-32.030;115.880;2023-05-07T07:43:59;2.42;;;0.22;;
72369;SDS011;60343;-32.030;115.880;2023-05-07T07:46:34;1.85;;;0.20;;
72369;SDS011;60343;-32.030;115.880;2023-05-07T07:49:09;2.85;;;0.30;;
72369;SDS011;60343;-32.030;115.880;2023-05-07T07:51:43;2.47;;;0.45;;
72369;SDS011;60343;-32.030;115.880;2023-05-07T07:54:23;1.10;;;0.30;;
72369;SDS011;60343;-32.030;115.880;2023-05-07T07:56:58;2.13;;;0.25;;
72369;SDS011;60343;-32.030;115.880;2023-05-07T07:59:33;0.57;;;0.10;;
72369;SDS011;60343;-32.030;115.880;2023-05-07T08:02:09;1.13;;;0.30;;
72369;SDS011;60343;-32.030;115.880;2023-05-07T08:04:43;1.67;;;0.22;;
72369;SDS011;60343;-32.030;115.880;2023-05-07T08:07:18;2.15;;;0.50;;
72369;SDS011;60343;-32.030;115.880;2023-05-07T08:09:58;1.08;;;0.20;;
72369;SDS011;60343;-32.030;115.880;2023-05-07T08:12:33;1.92;;;0.25;;
72369;SDS011;60343;-32.030;115.880;2023-05-07T08:15:07;2.28;;;0.30;;
72369;SDS011;60343;-32.030;115.880;2023-05-07T08:17:42;1.27;;;0.20;;
72369;SDS011;60343;-32.030;115.880;2023-05-07T08:20:17;1.23;;;0.30;;
72369;SDS011;60343;-32.030;115.880;2023-05-07T08:22:52;1.65;;;0.40;;
72369;SDS011;60343;-32.030;115.880;2023-05-07T08:25:32;2.15;;;0.30;;
72369;SDS011;60343;-32.030;115.880;2023-05-07T08:28:08;0.77;;;0.22;;
72369;SDS011;60343;-32.030;115.880;2023-05-07T08:30:42;1.88;;;0.30;;
72369;SDS011;60343;-32.030;115.880;2023-05-07T08:33:17;4.13;;;0.43;;
72369;SDS011;60343;-32.030;115.880;2023-05-07T08:35:51;1.20;;;0.30;;
72369;SDS011;60343;-32.030;115.880;2023-05-07T08:38:26;1.05;;;0.20;;
72369;SDS011;60343;-32.030;115.880;2023-05-07T08:41:06;2.70;;;0.63;;
72369;SDS011;60343;-32.030;115.880;2023-05-07T08:43:42;1.75;;;0.20;;
72369;SDS011;60343;-32.030;115.880;2023-05-07T08:46:20;1.10;;;0.22;;
72369;SDS011;60343;-32.030;115.880;2023-05-07T08:48:55;2.70;;;0.40;;
72369;SDS011;60343;-32.030;115.880;2023-05-07T08:51:29;2.13;;;0.50;;
72369;SDS011;60343;-32.030;115.880;2023-05-07T08:54:04;2.60;;;0.50;;
72369;SDS011;60343;-32.030;115.880;2023-05-07T08:56:46;2.70;;;0.32;;
72369;SDS011;60343;-32.030;115.880;2023-05-07T08:59:21;2.05;;;0.30;;
72369;SDS011;60343;-32.030;115.880;2023-05-07T09:01:56;2.88;;;0.40;;
72369;SDS011;60343;-32.030;115.880;2023-05-07T09:04:30;1.58;;;0.30;;
72369;SDS011;60343;-32.030;115.880;2023-05-07T09:07:05;1.60;;;0.40;;
72369;SDS011;60343;-32.030;115.880;2023-05-07T09:09:39;1.08;;;0.30;;
72369;SDS011;60343;-32.030;115.880;2023-05-07T09:12:20;2.15;;;0.40;;
72369;SDS011;60343;-32.030;115.880;2023-05-07T09:14:55;3.00;;;0.47;;
72369;SDS011;60343;-32.030;115.880;2023-05-07T09:17:29;3.40;;;0.50;;
72369;SDS011;60343;-32.030;115.880;2023-05-07T09:20:04;4.07;;;0.50;;
72369;SDS011;60343;-32.030;115.880;2023-05-07T09:22:40;2.80;;;0.60;;
72369;SDS011;60343;-32.030;115.880;2023-05-07T09:25:14;5.45;;;0.70;;
72369;SDS011;60343;-32.030;115.880;2023-05-07T09:28:05;4.60;;;0.40;;
72369;SDS011;60343;-32.030;115.880;2023-05-07T09:30:41;2.28;;;0.30;;
72369;SDS011;60343;-32.030;115.880;2023-05-07T09:33:15;3.92;;;0.30;;
72369;SDS011;60343;-32.030;115.880;2023-05-07T09:35:51;3.40;;;0.40;;
72369;SDS011;60343;-32.030;115.880;2023-05-07T09:38:26;2.13;;;0.30;;
72369;SDS011;60343;-32.030;115.880;2023-05-07T09:41:04;2.45;;;0.30;;
72369;SDS011;60343;-32.030;115.880;2023-05-07T09:43:45;3.42;;;0.40;;
72369;SDS011;60343;-32.030;115.880;2023-05-07T09:46:27;4.65;;;0.50;;
72369;SDS011;60343;-32.030;115.880;2023-05-07T09:49:04;4.75;;;0.40;;
72369;SDS011;60343;-32.030;115.880;2023-05-07T09:51:43;3.22;;;0.38;;
72369;SDS011;60343;-32.030;115.880;2023-05-07T09:54:22;1.83;;;0.50;;
72369;SDS011;60343;-32.030;115.880;2023-05-07T09:56:57;1.98;;;0.40;;
72369;SDS011;60343;-32.030;115.880;2023-05-07T09:59:40;1.65;;;0.30;;
72369;SDS011;60343;-32.030;115.880;2023-05-07T10:02:18;1.40;;;0.45;;
72369;SDS011;60343;-32.030;115.880;2023-05-07T10:04:53;2.78;;;0.60;;
72369;SDS011;60343;-32.030;115.880;2023-05-07T10:07:29;1.75;;;0.32;;
72369;SDS011;60343;-32.030;115.880;2023-05-07T10:10:04;3.08;;;0.50;;
72369;SDS011;60343;-32.030;115.880;2023-05-07T10:12:39;2.03;;;0.60;;
72369;SDS011;60343;-32.030;115.880;2023-05-07T10:15:20;3.90;;;0.43;;
72369;SDS011;60343;-32.030;115.880;2023-05-07T10:17:55;2.30;;;0.40;;
72369;SDS011;60343;-32.030;115.880;2023-05-07T10:20:30;3.60;;;0.50;;
72369;SDS011;60343;-32.030;115.880;2023-05-07T10:23:06;2.35;;;0.40;;
72369;SDS011;60343;-32.030;115.880;2023-05-07T10:25:45;2.70;;;0.40;;
72369;SDS011;60343;-32.030;115.880;2023-05-07T10:28:20;1.35;;;0.30;;
72369;SDS011;60343;-32.030;115.880;2023-05-07T10:31:05;4.88;;;0.50;;
72369;SDS011;60343;-32.030;115.880;2023-05-07T10:33:48;2.08;;;0.38;;
72369;SDS011;60343;-32.030;115.880;2023-05-07T10:36:24;1.80;;;0.40;;
72369;SDS011;60343;-32.030;115.880;2023-05-07T10:39:00;1.83;;;0.40;;
72369;SDS011;60343;-32.030;115.880;2023-05-07T10:41:35;2.08;;;0.30;;
72369;SDS011;60343;-32.030;115.880;2023-05-07T10:44:10;4.10;;;0.38;;
72369;SDS011;60343;-32.030;115.880;2023-05-07T10:47:12;2.70;;;0.40;;
72369;SDS011;60343;-32.030;115.880;2023-05-07T10:58:55;4.68;;;0.30;;
72369;SDS011;60343;-32.030;115.880;2023-05-07T11:01:58;1.77;;;0.30;;
72369;SDS011;60343;-32.030;115.880;2023-05-07T11:04:41;1.95;;;0.20;;
72369;SDS011;60343;-32.030;115.880;2023-05-07T11:07:26;1.63;;;0.30;;
72369;SDS011;60343;-32.030;115.880;2023-05-07T11:10:02;0.98;;;0.25;;
72369;SDS011;60343;-32.030;115.880;2023-05-07T11:18:24;5.72;;;0.93;;
72369;SDS011;60343;-32.030;115.880;2023-05-07T11:24:14;1.23;;;0.38;;
72369;SDS011;60343;-32.030;115.880;2023-05-07T11:26:49;3.85;;;0.35;;
72369;SDS011;60343;-32.030;115.880;2023-05-07T11:29:24;2.22;;;0.60;;
72369;SDS011;60343;-32.030;115.880;2023-05-07T11:32:00;1.38;;;0.40;;
72369;SDS011;60343;-32.030;115.880;2023-05-07T11:34:35;3.47;;;0.60;;
72369;SDS011;60343;-32.030;115.880;2023-05-07T11:37:16;3.38;;;0.50;;
72369;SDS011;60343;-32.030;115.880;2023-05-07T11:39:50;4.13;;;1.00;;
72369;SDS011;60343;-32.030;115.880;2023-05-07T11:42:35;2.70;;;0.70;;
72369;SDS011;60343;-32.030;115.880;2023-05-07T11:45:11;3.63;;;0.70;;
72369;SDS011;60343;-32.030;115.880;2023-05-07T11:47:57;4.55;;;1.17;;
72369;SDS011;60343;-32.030;115.880;2023-05-07T11:50:34;4.30;;;0.70;;
72369;SDS011;60343;-32.030;115.880;2023-05-07T11:53:19;3.63;;;0.50;;
72369;SDS011;60343;-32.030;115.880;2023-05-07T11:55:57;4.13;;;0.90;;
72369;SDS011;60343;-32.030;115.880;2023-05-07T12:01:40;3.58;;;0.95;;
72369;SDS011;60343;-32.030;115.880;2023-05-07T12:04:20;2.55;;;0.80;;
72369;SDS011;60343;-32.030;115.880;2023-05-07T12:06:55;4.00;;;0.77;;
72369;SDS011;60343;-32.030;115.880;2023-05-07T12:09:35;3.40;;;0.88;;
72369;SDS011;60343;-32.030;115.880;2023-05-07T12:12:09;4.68;;;0.90;;
72369;SDS011;60343;-32.030;115.880;2023-05-07T12:14:44;3.90;;;0.90;;
72369;SDS011;60343;-32.030;115.880;2023-05-07T12:17:19;2.78;;;0.80;;
72369;SDS011;60343;-32.030;115.880;2023-05-07T12:19:54;3.63;;;0.60;;
72369;SDS011;60343;-32.030;115.880;2023-05-07T12:22:29;3.60;;;0.80;;
72369;SDS011;60343;-32.030;115.880;2023-05-07T12:25:11;5.63;;;0.90;;
72369;SDS011;60343;-32.030;115.880;2023-05-07T12:27:52;5.88;;;0.88;;
72369;SDS011;60343;-32.030;115.880;2023-05-07T12:30:26;3.20;;;0.70;;
72369;SDS011;60343;-32.030;115.880;2023-05-07T12:33:01;3.53;;;0.68;;
72369;SDS011;60343;-32.030;115.880;2023-05-07T12:35:37;4.07;;;0.90;;
72369;SDS011;60343;-32.030;115.880;2023-05-07T12:38:12;4.18;;;0.80;;
72369;SDS011;60343;-32.030;115.880;2023-05-07T12:40:54;5.93;;;0.93;;
72369;SDS011;60343;-32.030;115.880;2023-05-07T12:43:29;2.35;;;0.60;;
72369;SDS011;60343;-32.030;115.880;2023-05-07T12:46:04;4.15;;;0.73;;
72369;SDS011;60343;-32.030;115.880;2023-05-07T12:48:43;3.50;;;0.88;;
72369;SDS011;60343;-32.030;115.880;2023-05-07T12:51:18;4.20;;;0.95;;
72369;SDS011;60343;-32.030;115.880;2023-05-07T12:53:53;2.75;;;0.70;;
72369;SDS011;60343;-32.030;115.880;2023-05-07T12:56:36;2.88;;;0.60;;
72369;SDS011;60343;-32.030;115.880;2023-05-07T12:59:13;4.43;;;0.60;;
72369;SDS011;60343;-32.030;115.880;2023-05-07T13:01:47;4.43;;;0.68;;
72369;SDS011;60343;-32.030;115.880;2023-05-07T13:04:23;3.17;;;0.60;;
72369;SDS011;60343;-32.030;115.880;2023-05-07T13:06:58;3.28;;;0.60;;
72369;SDS011;60343;-32.030;115.880;2023-05-07T13:09:33;4.03;;;0.52;;
72369;SDS011;60343;-32.030;115.880;2023-05-07T13:12:14;2.10;;;0.63;;
72369;SDS011;60343;-32.030;115.880;2023-05-07T13:14:48;3.47;;;0.70;;
72369;SDS011;60343;-32.030;115.880;2023-05-07T13:17:23;3.13;;;0.70;;
72369;SDS011;60343;-32.030;115.880;2023-05-07T13:19:57;3.53;;;0.60;;
72369;SDS011;60343;-32.030;115.880;2023-05-07T13:22:32;2.58;;;0.68;;
72369;SDS011;60343;-32.030;115.880;2023-05-07T13:25:06;2.47;;;0.50;;
72369;SDS011;60343;-32.030;115.880;2023-05-07T13:27:47;4.25;;;0.90;;
72369;SDS011;60343;-32.030;115.880;2023-05-07T13:30:22;5.55;;;0.73;;
72369;SDS011;60343;-32.030;115.880;2023-05-07T13:32:56;3.35;;;0.75;;
72369;SDS011;60343;-32.030;115.880;2023-05-07T13:35:31;4.53;;;0.50;;
72369;SDS011;60343;-32.030;115.880;2023-05-07T13:38:06;2.67;;;0.55;;
72369;SDS011;60343;-32.030;115.880;2023-05-07T13:40:42;4.18;;;0.80;;
72369;SDS011;60343;-32.030;115.880;2023-05-07T13:43:22;5.50;;;1.00;;
72369;SDS011;60343;-32.030;115.880;2023-05-07T13:45:56;3.20;;;0.68;;
72369;SDS011;60343;-32.030;115.880;2023-05-07T13:48:31;3.15;;;0.57;;
72369;SDS011;60343;-32.030;115.880;2023-05-07T13:51:05;6.38;;;0.90;;
72369;SDS011;60343;-32.030;115.880;2023-05-07T13:53:40;3.53;;;0.80;;
72369;SDS011;60343;-32.030;115.880;2023-05-07T13:56:14;7.10;;;1.00;;
72369;SDS011;60343;-32.030;115.880;2023-05-07T13:58:54;3.15;;;0.90;;
72369;SDS011;60343;-32.030;115.880;2023-05-07T14:01:29;1.83;;;0.60;;
72369;SDS011;60343;-32.030;115.880;2023-05-07T14:04:03;4.25;;;0.85;;
72369;SDS011;60343;-32.030;115.880;2023-05-07T14:06:38;3.58;;;0.80;;
72369;SDS011;60343;-32.030;115.880;2023-05-07T14:09:13;5.90;;;0.80;;
72369;SDS011;60343;-32.030;115.880;2023-05-07T14:11:47;4.07;;;0.80;;
72369;SDS011;60343;-32.030;115.880;2023-05-07T14:14:27;3.33;;;0.90;;
72369;SDS011;60343;-32.030;115.880;2023-05-07T14:17:02;3.65;;;0.98;;
72369;SDS011;60343;-32.030;115.880;2023-05-07T14:19:37;4.50;;;0.90;;
72369;SDS011;60343;-32.030;115.880;2023-05-07T14:22:12;5.20;;;1.08;;
72369;SDS011;60343;-32.030;115.880;2023-05-07T14:24:47;4.75;;;0.70;;
72369;SDS011;60343;-32.030;115.880;2023-05-07T14:27:22;2.65;;;0.70;;
72369;SDS011;60343;-32.030;115.880;2023-05-07T14:30:03;2.70;;;0.70;;
72369;SDS011;60343;-32.030;115.880;2023-05-07T14:32:38;2.72;;;0.57;;
72369;SDS011;60343;-32.030;115.880;2023-05-07T14:35:12;3.60;;;0.73;;
72369;SDS011;60343;-32.030;115.880;2023-05-07T14:37:47;2.60;;;0.68;;
72369;SDS011;60343;-32.030;115.880;2023-05-07T14:40:21;3.08;;;0.80;;
72369;SDS011;60343;-32.030;115.880;2023-05-07T14:42:56;5.53;;;0.90;;
72369;SDS011;60343;-32.030;115.880;2023-05-07T14:45:36;3.88;;;0.75;;
72369;SDS011;60343;-32.030;115.880;2023-05-07T14:48:10;4.00;;;0.65;;
72369;SDS011;60343;-32.030;115.880;2023-05-07T14:50:46;5.80;;;0.70;;
72369;SDS011;60343;-32.030;115.880;2023-05-07T14:53:21;3.75;;;0.68;;
72369;SDS011;60343;-32.030;115.880;2023-05-07T14:55:56;2.38;;;0.50;;
72369;SDS011;60343;-32.030;115.880;2023-05-07T14:58:30;3.40;;;0.60;;
72369;SDS011;60343;-32.030;115.880;2023-05-07T15:01:10;3.42;;;0.70;;
72369;SDS011;60343;-32.030;115.880;2023-05-07T15:03:45;4.45;;;0.70;;
72369;SDS011;60343;-32.030;115.880;2023-05-07T15:06:19;2.40;;;0.60;;
72369;SDS011;60343;-32.030;115.880;2023-05-07T15:08:54;1.98;;;0.50;;
72369;SDS011;60343;-32.030;115.880;2023-05-07T15:11:29;4.38;;;0.80;;
72369;SDS011;60343;-32.030;115.880;2023-05-07T15:14:03;1.73;;;0.50;;
72369;SDS011;60343;-32.030;115.880;2023-05-07T15:16:43;4.88;;;0.57;;
72369;SDS011;60343;-32.030;115.880;2023-05-07T15:19:18;3.00;;;0.60;;
72369;SDS011;60343;-32.030;115.880;2023-05-07T15:21:55;3.65;;;0.70;;